»·PEaware :: LXJ824 KBUR-KSJC

LXJ824 :: KBUR-KSJC

FLIGHT INFORMATION

Flight Status: Arrived
Operator: Unknown
More flights by this operator :: More flights under this callsign
Pilot: Andrew S. (20703)
Aircraft: BOMBARDIER BD-100 CHALLENGER 300
(CL30)
More flights by this aircraft type
Origin: KBUR Bob Hope-Burbank
United States
Destination: KSJC Mineta San Jose Intl
United States
More flights between these airports :: More routes between these airports
Route: OROSZ2 COREZ MAKRS TROXX SILCN4
File this flight plan on PilotEdge
Remarks: RMK / SIMBRIEF
Altitude:
(Current/Filed)
43,000ft
Speed:
(Current/Filed)
465kts
Departed: 10-Dec-19 07:36 PM
Arrived: 10-Dec-19 08:26 PM
Distance/Time
Traveled:
258nm/0:49
Distance/Time
To Go:
Arrived

Flight Plot

Page will automatically refresh every two minutes.

Flight plan parsing failed; only flown route is shown


Map Options




Map Legend


Flown Route
Filed Route
Departure Airport
Arrival Airport
Navaid (VOR, NDB)
Fix

Horizontal Profiles

Position Reports

Time Latitude Longitude Heading Altitude Ground
Speed
10-Dec-19 19:04 34.200216 -118.358843 258 783ft 0kts
10-Dec-19 19:05 34.200216 -118.358843 258 783ft 0kts
10-Dec-19 19:06 34.200216 -118.358843 258 783ft 0kts
10-Dec-19 19:07 34.200216 -118.358843 258 783ft 0kts
10-Dec-19 19:08 34.200216 -118.358843 258 783ft 0kts
10-Dec-19 19:09 34.200216 -118.358843 258 783ft 0kts
10-Dec-19 19:10 34.200216 -118.358843 258 783ft 0kts
10-Dec-19 19:11 34.200216 -118.358843 258 783ft 0kts
10-Dec-19 19:12 34.200216 -118.358843 258 783ft 0kts
10-Dec-19 19:13 34.200216 -118.358843 258 783ft 0kts
10-Dec-19 19:14 34.200216 -118.358843 258 783ft 0kts
10-Dec-19 19:15 34.200216 -118.358843 258 783ft 0kts
10-Dec-19 19:16 34.200216 -118.358843 258 783ft 0kts
10-Dec-19 19:17 34.200216 -118.358843 258 783ft 0kts
10-Dec-19 19:18 34.200216 -118.358843 258 783ft 0kts
10-Dec-19 19:19 34.200216 -118.358843 258 783ft 0kts
10-Dec-19 19:20 34.200216 -118.358843 258 783ft 0kts
10-Dec-19 19:21 34.200216 -118.358843 258 783ft 0kts
10-Dec-19 19:22 34.200216 -118.358843 258 783ft 0kts
10-Dec-19 19:23 34.200216 -118.358843 258 783ft 0kts
10-Dec-19 19:24 34.200216 -118.358844 258 783ft 0kts
10-Dec-19 19:25 34.200216 -118.358843 258 783ft 0kts
10-Dec-19 19:26 34.199886 -118.358918 258 783ft 0kts
10-Dec-19 19:27 34.199886 -118.358918 258 783ft 0kts
10-Dec-19 19:28 34.199854 -118.359019 238 783ft 4kts
10-Dec-19 19:29 34.202723 -118.358949 346 783ft 27kts
10-Dec-19 19:30 34.211162 -118.361292 348 783ft 25kts
10-Dec-19 19:31 34.211790 -118.361392 11 783ft 0kts
10-Dec-19 19:32 34.211790 -118.361392 11 783ft 0kts
10-Dec-19 19:33 34.211790 -118.361392 11 783ft 0kts
10-Dec-19 19:34 34.212186 -118.360877 78 783ft 19kts
10-Dec-19 19:35 34.193894 -118.355334 167 1638ft 171kts
10-Dec-19 19:36 34.144333 -118.386928 221 3996ft 264kts
10-Dec-19 19:37 34.106426 -118.454924 298 4694ft 269kts
10-Dec-19 19:38 34.161454 -118.510958 322 9378ft 273kts
10-Dec-19 19:39 34.230369 -118.556165 331 13218ft 289kts
10-Dec-19 19:40 34.304106 -118.601931 329 18335ft 308kts
10-Dec-19 19:41 34.382470 -118.649902 329 22397ft 331kts
10-Dec-19 19:42 34.473290 -118.706823 324 23027ft 386kts
10-Dec-19 19:43 34.567484 -118.773562 323 24645ft 378kts
10-Dec-19 19:44 34.659089 -118.838573 323 27712ft 390kts
10-Dec-19 19:45 34.755514 -118.907160 323 29808ft 412kts
10-Dec-19 19:46 34.857463 -118.979823 323 31662ft 428kts
10-Dec-19 19:47 34.962674 -119.055016 324 33226ft 442kts
10-Dec-19 19:48 35.071355 -119.132931 324 34571ft 455kts
10-Dec-19 19:49 35.181617 -119.212239 324 35779ft 464kts
10-Dec-19 19:50 35.293490 -119.292954 324 37229ft 464kts
10-Dec-19 19:51 35.404445 -119.373280 324 38693ft 463kts
10-Dec-19 19:52 35.511200 -119.458904 310 40534ft 442kts
10-Dec-19 19:53 35.566971 -119.588790 282 41973ft 425kts
10-Dec-19 19:54 35.592609 -119.729902 278 43267ft 424kts
10-Dec-19 19:55 35.614914 -119.876589 277 43284ft 444kts
10-Dec-19 19:56 35.636648 -120.024456 277 43278ft 426kts
10-Dec-19 19:57 35.657226 -120.166328 277 43268ft 409kts
10-Dec-19 19:58 35.677260 -120.303736 280 43258ft 409kts
10-Dec-19 19:59 35.735510 -120.428498 300 43262ft 428kts
10-Dec-19 20:00 35.801377 -120.553285 298 43261ft 435kts
10-Dec-19 20:01 35.867247 -120.682421 297 42227ft 452kts
10-Dec-19 20:02 35.931956 -120.810161 297 39368ft 430kts
10-Dec-19 20:03 35.995159 -120.934524 301 35453ft 428kts
10-Dec-19 20:04 36.083340 -121.030574 316 32031ft 412kts
10-Dec-19 20:05 36.175933 -121.119760 317 27528ft 422kts
10-Dec-19 20:06 36.266806 -121.207096 317 25969ft 408kts
10-Dec-19 20:07 36.355456 -121.292547 317 24268ft 398kts
10-Dec-19 20:08 36.441282 -121.375225 317 22629ft 376kts
10-Dec-19 20:09 36.528163 -121.442007 335 18817ft 374kts
10-Dec-19 20:10 36.625734 -121.484137 336 15784ft 350kts
10-Dec-19 20:11 36.717308 -121.523093 337 12779ft 356kts
10-Dec-19 20:12 36.809221 -121.562101 337 10993ft 319kts
10-Dec-19 20:13 36.888056 -121.595665 337 8423ft 282kts
10-Dec-19 20:14 36.959941 -121.626215 338 6890ft 252kts
10-Dec-19 20:15 37.021510 -121.652314 337 4653ft 218kts
10-Dec-19 20:16 37.074953 -121.675060 337 4050ft 212kts
10-Dec-19 20:17 37.122879 -121.694393 334 4033ft 180kts
10-Dec-19 20:18 37.173452 -121.724284 331 4003ft 202kts
10-Dec-19 20:19 37.213723 -121.767223 319 3773ft 191kts
10-Dec-19 20:20 37.252862 -121.809876 319 2830ft 161kts
10-Dec-19 20:21 37.282507 -121.842250 319 2019ft 134kts
10-Dec-19 20:22 37.309377 -121.871592 320 1317ft 119kts
10-Dec-19 20:23 37.332967 -121.897369 320 717ft 111kts
10-Dec-19 20:24 37.356215 -121.922872 320 116ft 107kts
10-Dec-19 20:25 37.366482 -121.935502 230 69ft 0kts
10-Dec-19 20:26 37.365916 -121.935410 138 69ft 9kts

Navigation Log

Ident Type
Flight plan parsing failed, navigation log unavailable